Time;durP1;ratioP1;P1;durP2;ratioP2;P2;SDS_P1;SDS_P2;PMS_P1;PMS_P2;Temp;Humidity;BMP_temperature;BMP_pressure;BME280_temperature;BME280_humidity;BME280_pressure;Samples;Min_cycle;Max_cycle;Signal;HPM_P1;HPM_P2
2022/01/03 00:01:07;;;;;;;;;;;13.40;58.00;;;;;;5100037;28;19908;-71
2022/01/03 00:03:32;;;;;;;;;;;13.40;57.90;;;;;;5100103;28;19900;-71
2022/01/03 00:05:58;;;;;;;;;;;13.40;57.90;;;;;;5100112;28;19967;-70
2022/01/03 00:08:24;;;;;;;;;;;13.40;57.80;;;;;;5099840;28;19922;-70
2022/01/03 00:10:50;;;;;;;;;;;13.50;57.80;;;;;;5081993;28;19958;-71
2022/01/03 00:13:19;;;;;;;;;;;13.50;57.80;;;;;;5100083;28;19916;-70
2022/01/03 00:15:44;;;;;;;;;;;13.40;57.80;;;;;;5099947;28;19908;-71
2022/01/03 00:18:10;;;;;;;;;;;13.40;57.80;;;;;;5099978;28;20288;-71
2022/01/03 00:20:38;;;;;;;;;;;13.40;57.80;;;;;;5099981;28;19908;-71
2022/01/03 00:23:05;;;;;;;;;;;13.50;57.80;;;;;;5081863;28;19943;-70
2022/01/03 00:25:33;;;;;;;;;;;13.40;57.70;;;;;;5099856;28;20426;-71
2022/01/03 00:28:05;;;;;;;;;;;13.30;57.90;;;;;;5099864;28;19915;-71
2022/01/03 00:30:34;;;;;;;;;;;13.30;57.90;;;;;;5100449;28;19943;-71
2022/01/03 00:33:01;;;;;;;;;;;13.30;58.10;;;;;;5104031;28;19912;-70
2022/01/03 00:35:28;;;;;;;;;;;13.40;58.10;;;;;;5103956;28;19942;-70
2022/01/03 00:37:56;;;;;;;;;;;13.40;58.00;;;;;;5104018;28;19939;-70
2022/01/03 00:40:21;;;;;;;;;;;13.40;58.00;;;;;;5103886;28;19908;-70
2022/01/03 00:42:48;;;;;;;;;;;13.40;57.90;;;;;;5103894;28;19900;-70
2022/01/03 00:45:14;;;;;;;;;;;13.40;57.90;;;;;;5103825;28;19900;-70
2022/01/03 00:47:39;;;;;;;;;;;13.40;57.80;;;;;;5103722;28;20108;-69
2022/01/03 00:50:18;;;;;;;;;;;13.40;57.80;;;;;;5103768;28;19915;-70
2022/01/03 00:52:45;;;;;;;;;;;13.40;57.80;;;;;;5103610;28;19904;-70
2022/01/03 00:55:11;;;;;;;;;;;13.40;57.90;;;;;;5103273;28;19957;-71
2022/01/03 00:57:47;;;;;;;;;;;13.40;57.80;;;;;;5103573;28;19904;-70
2022/01/03 01:00:13;;;;;;;;;;;13.40;57.90;;;;;;5103552;28;19900;-70
2022/01/03 01:02:42;;;;;;;;;;;13.40;57.80;;;;;;5103403;28;19900;-70
2022/01/03 01:05:08;;;;;;;;;;;13.40;57.70;;;;;;5103444;28;19900;-70
2022/01/03 01:07:34;;;;;;;;;;;13.40;57.70;;;;;;5103255;28;19976;-70
2022/01/03 01:10:02;;;;;;;;;;;13.40;57.80;;;;;;5103359;28;20386;-69
2022/01/03 01:12:29;;;;;;;;;;;13.40;57.80;;;;;;5103230;28;19946;-70
2022/01/03 01:14:55;;;;;;;;;;;13.40;57.80;;;;;;5103271;28;19983;-70
2022/01/03 01:17:21;;;;;;;;;;;13.40;57.90;;;;;;5103149;28;19915;-71
2022/01/03 01:19:46;;;;;;;;;;;13.40;57.90;;;;;;5103277;28;19908;-70
2022/01/03 01:22:12;;;;;;;;;;;13.40;57.90;;;;;;5103098;28;19907;-70
2022/01/03 01:24:48;;;;;;;;;;;13.40;57.80;;;;;;5103099;28;19900;-70
2022/01/03 01:29:58;;;;;;;;;;;13.40;57.80;;;;;;5103034;28;19937;-71
2022/01/03 01:32:23;;;;;;;;;;;13.40;57.80;;;;;;5102841;28;19908;-70
2022/01/03 01:34:50;;;;;;;;;;;13.40;57.80;;;;;;5102875;28;19935;-70
2022/01/03 01:37:19;;;;;;;;;;;13.40;57.80;;;;;;5102873;28;20129;-70
2022/01/03 01:39:49;;;;;;;;;;;13.40;57.70;;;;;;5102836;28;19938;-69
2022/01/03 01:42:16;;;;;;;;;;;13.40;57.70;;;;;;5083371;28;19908;-71
2022/01/03 01:44:46;;;;;;;;;;;13.50;57.70;;;;;;5102668;28;19908;-71
2022/01/03 01:47:12;;;;;;;;;;;13.40;57.60;;;;;;5102600;28;20200;-71
2022/01/03 01:49:40;;;;;;;;;;;13.40;57.80;;;;;;5102631;28;19907;-70
2022/01/03 01:52:10;;;;;;;;;;;13.30;57.90;;;;;;5102584;28;19921;-70
2022/01/03 01:54:37;;;;;;;;;;;13.30;58.10;;;;;;5102454;28;20235;-70
2022/01/03 01:57:02;;;;;;;;;;;13.30;58.00;;;;;;5102471;28;19958;-70
2022/01/03 01:59:37;;;;;;;;;;;13.40;58.00;;;;;;5102466;28;20184;-70
2022/01/03 02:02:02;;;;;;;;;;;13.40;57.90;;;;;;5102336;28;20097;-71
2022/01/03 02:04:31;;;;;;;;;;;13.40;57.80;;;;;;5102326;28;19967;-70
2022/01/03 02:07:03;;;;;;;;;;;13.40;57.80;;;;;;5102157;28;19900;-70
2022/01/03 02:09:37;;;;;;;;;;;13.40;57.80;;;;;;5102252;28;19900;-70
2022/01/03 02:12:05;;;;;;;;;;;13.40;57.70;;;;;;5084032;28;19900;-70
2022/01/03 02:14:36;;;;;;;;;;;13.40;57.70;;;;;;5102043;28;20271;-70
2022/01/03 02:17:02;;;;;;;;;;;13.40;57.70;;;;;;5102125;28;19943;-71
2022/01/03 02:19:27;;;;;;;;;;;13.40;57.70;;;;;;5102039;28;19923;-70
2022/01/03 02:21:53;;;;;;;;;;;13.40;57.60;;;;;;5101980;28;19900;-70
2022/01/03 02:24:18;;;;;;;;;;;13.40;57.70;;;;;;5083768;28;19908;-70
2022/01/03 02:26:44;;;;;;;;;;;13.40;57.80;;;;;;5101941;28;19907;-71
2022/01/03 02:29:10;;;;;;;;;;;13.40;57.90;;;;;;5083763;28;19908;-71
2022/01/03 02:31:36;;;;;;;;;;;13.30;57.90;;;;;;5083732;28;19908;-70
2022/01/03 02:34:03;;;;;;;;;;;13.30;58.00;;;;;;5101663;28;19923;-70
2022/01/03 02:36:30;;;;;;;;;;;13.30;58.00;;;;;;5101759;28;20184;-70
2022/01/03 02:38:56;;;;;;;;;;;13.40;58.00;;;;;;5101766;28;20285;-70
2022/01/03 02:41:21;;;;;;;;;;;13.40;57.90;;;;;;5101582;28;19908;-71
2022/01/03 02:43:49;;;;;;;;;;;13.40;57.80;;;;;;5101554;28;19923;-71
2022/01/03 02:46:14;;;;;;;;;;;13.40;57.70;;;;;;5101593;28;19915;-71
2022/01/03 02:48:40;;;;;;;;;;;13.40;57.80;;;;;;5101551;28;19908;-71
2022/01/03 02:51:05;;;;;;;;;;;13.40;57.80;;;;;;5101416;28;19908;-70
2022/01/03 02:53:31;;;;;;;;;;;13.40;57.80;;;;;;5101049;28;20141;-70
2022/01/03 02:55:57;;;;;;;;;;;13.40;57.70;;;;;;5083225;28;19922;-70
2022/01/03 02:58:22;;;;;;;;;;;13.40;57.70;;;;;;5101345;28;19900;-71
2022/01/03 03:00:49;;;;;;;;;;;13.40;57.80;;;;;;5083053;28;20161;-70
2022/01/03 03:03:16;;;;;;;;;;;13.40;57.70;;;;;;5101359;28;19915;-71
2022/01/03 03:05:42;;;;;;;;;;;13.40;57.60;;;;;;5101202;28;19908;-70
2022/01/03 03:08:07;;;;;;;;;;;13.30;57.70;;;;;;5082861;28;19967;-71
2022/01/03 03:10:33;;;;;;;;;;;13.30;57.90;;;;;;5101092;28;19946;-71
2022/01/03 03:12:59;;;;;;;;;;;13.30;58.00;;;;;;5100970;28;20101;-70
2022/01/03 03:15:24;;;;;;;;;;;13.20;58.20;;;;;;5082861;28;19908;-70
2022/01/03 03:17:50;;;;;;;;;;;13.30;58.20;;;;;;5100956;28;19982;-70
2022/01/03 03:20:17;;;;;;;;;;;13.30;58.10;;;;;;5100875;28;19908;-70
2022/01/03 03:22:43;;;;;;;;;;;13.30;58.00;;;;;;5100851;28;20077;-70
2022/01/03 03:25:11;;;;;;;;;;;13.40;57.90;;;;;;5100827;28;19940;-70
2022/01/03 03:27:43;;;;;;;;;;;13.40;57.90;;;;;;5100768;28;19908;-70
2022/01/03 03:30:09;;;;;;;;;;;13.40;58.10;;;;;;5082560;28;19934;-70
2022/01/03 03:32:35;;;;;;;;;;;13.40;57.90;;;;;;5082501;28;19908;-70
2022/01/03 03:35:00;;;;;;;;;;;13.40;57.90;;;;;;5100595;28;19967;-70
2022/01/03 03:37:26;;;;;;;;;;;13.40;57.90;;;;;;5100687;28;20095;-70
2022/01/03 03:39:52;;;;;;;;;;;13.40;57.80;;;;;;5100558;28;19936;-70
2022/01/03 03:42:17;;;;;;;;;;;13.40;57.80;;;;;;5100588;28;20092;-70
2022/01/03 03:44:45;;;;;;;;;;;13.40;57.80;;;;;;5100565;28;19992;-70
2022/01/03 03:47:10;;;;;;;;;;;13.40;57.70;;;;;;5100559;28;19908;-70
2022/01/03 03:49:36;;;;;;;;;;;13.40;57.60;;;;;;5100522;28;19915;-70
2022/01/03 03:52:02;;;;;;;;;;;13.30;57.70;;;;;;5082309;28;19900;-70
2022/01/03 03:54:28;;;;;;;;;;;13.30;57.80;;;;;;5100310;28;20025;-69
2022/01/03 03:56:54;;;;;;;;;;;13.30;58.00;;;;;;5100410;28;19912;-70
2022/01/03 03:59:20;;;;;;;;;;;13.30;58.00;;;;;;5100344;28;20107;-71
2022/01/03 04:01:45;;;;;;;;;;;13.30;57.90;;;;;;5100449;28;19908;-70
2022/01/03 04:04:11;;;;;;;;;;;13.40;58.00;;;;;;5100635;28;19946;-70
2022/01/03 04:06:36;;;;;;;;;;;13.40;57.90;;;;;;5099684;28;20212;-70
2022/01/03 04:09:02;;;;;;;;;;;13.40;57.80;;;;;;5100180;28;19908;-70
2022/01/03 04:11:28;;;;;;;;;;;13.30;57.80;;;;;;5100356;28;19931;-70
2022/01/03 04:13:54;;;;;;;;;;;13.30;57.90;;;;;;5082043;28;19923;-70
2022/01/03 04:16:20;;;;;;;;;;;13.30;58.10;;;;;;5100263;28;19987;-70
2022/01/03 04:18:45;;;;;;;;;;;13.30;58.00;;;;;;5082167;28;20146;-70
2022/01/03 04:21:11;;;;;;;;;;;13.30;58.00;;;;;;5081989;28;19908;-70
2022/01/03 04:23:36;;;;;;;;;;;13.30;57.90;;;;;;5100199;28;20178;-70
2022/01/03 04:26:04;;;;;;;;;;;13.30;57.90;;;;;;5082077;28;19900;-70
2022/01/03 04:28:30;;;;;;;;;;;13.40;57.90;;;;;;5100151;28;19915;-70
2022/01/03 04:30:56;;;;;;;;;;;13.40;58.50;;;;;;5100146;28;19908;-70
2022/01/03 04:33:21;;;;;;;;;;;13.40;57.70;;;;;;5099929;28;20111;-71
2022/01/03 04:35:47;;;;;;;;;;;13.30;57.70;;;;;;5100106;28;19900;-70
2022/01/03 04:38:13;;;;;;;;;;;13.30;57.90;;;;;;5081848;28;19900;-70
2022/01/03 04:40:38;;;;;;;;;;;13.30;58.20;;;;;;5081960;28;19912;-70
2022/01/03 04:43:04;;;;;;;;;;;13.30;58.20;;;;;;5081905;28;20120;-70
2022/01/03 04:45:30;;;;;;;;;;;13.30;58.00;;;;;;5099989;28;19908;-69
2022/01/03 04:47:55;;;;;;;;;;;13.30;58.00;;;;;;5099934;28;20116;-69
2022/01/03 04:50:21;;;;;;;;;;;13.30;58.00;;;;;;5081748;28;19979;-70
2022/01/03 04:52:47;;;;;;;;;;;13.30;57.90;;;;;;5099781;28;19904;-70
2022/01/03 04:55:12;;;;;;;;;;;13.40;57.90;;;;;;5099917;28;19907;-70
2022/01/03 04:57:38;;;;;;;;;;;13.40;57.60;;;;;;5099928;28;19900;-70
2022/01/03 05:00:05;;;;;;;;;;;13.30;57.80;;;;;;5099838;28;19993;-69
2022/01/03 05:02:30;;;;;;;;;;;13.20;58.00;;;;;;5099831;28;19949;-70
2022/01/03 05:04:56;;;;;;;;;;;13.30;58.10;;;;;;5099845;28;19908;-70
2022/01/03 05:07:21;;;;;;;;;;;13.30;58.10;;;;;;5099603;28;20074;-71
2022/01/03 05:09:47;;;;;;;;;;;13.30;58.00;;;;;;5081645;28;19900;-70
2022/01/03 05:12:13;;;;;;;;;;;13.30;58.00;;;;;;5099727;28;19900;-70
2022/01/03 05:14:39;;;;;;;;;;;13.30;58.00;;;;;;5099641;28;19919;-70
2022/01/03 05:17:05;;;;;;;;;;;13.40;58.00;;;;;;5101141;28;19907;-70
2022/01/03 05:19:31;;;;;;;;;;;13.40;57.90;;;;;;5103399;28;20200;-70
2022/01/03 05:21:56;;;;;;;;;;;13.30;57.90;;;;;;5085234;28;19907;-70
2022/01/03 05:24:22;;;;;;;;;;;13.30;57.90;;;;;;5085194;28;20131;-70
2022/01/03 05:26:48;;;;;;;;;;;13.30;58.00;;;;;;5103348;28;19900;-70
2022/01/03 05:29:13;;;;;;;;;;;13.30;58.20;;;;;;5103212;28;19931;-70
2022/01/03 05:31:39;;;;;;;;;;;13.30;58.10;;;;;;5103165;28;20132;-69
2022/01/03 05:34:05;;;;;;;;;;;13.30;58.00;;;;;;5103149;28;19976;-70
2022/01/03 05:36:30;;;;;;;;;;;13.30;57.90;;;;;;5103119;28;19919;-70
2022/01/03 05:38:56;;;;;;;;;;;13.40;57.80;;;;;;5084918;28;19908;-70
2022/01/03 05:41:22;;;;;;;;;;;13.30;57.60;;;;;;5103034;28;19900;-70
2022/01/03 05:43:49;;;;;;;;;;;13.30;57.90;;;;;;5103021;28;19935;-71
2022/01/03 05:46:14;;;;;;;;;;;13.20;57.90;;;;;;5103335;28;19908;-70
2022/01/03 05:48:40;;;;;;;;;;;13.20;58.10;;;;;;5084700;28;19937;-70
2022/01/03 05:51:06;;;;;;;;;;;13.30;58.00;;;;;;5102905;28;20025;-71
2022/01/03 05:53:32;;;;;;;;;;;13.30;58.00;;;;;;5102712;28;20198;-70
2022/01/03 05:55:58;;;;;;;;;;;13.30;58.00;;;;;;5102787;28;19907;-70
2022/01/03 05:58:23;;;;;;;;;;;13.30;58.00;;;;;;5102730;28;19900;-69
2022/01/03 06:00:49;;;;;;;;;;;13.30;57.90;;;;;;5102751;28;19908;-70
2022/01/03 06:03:19;;;;;;;;;;;13.30;57.90;;;;;;5102723;28;19911;-70
2022/01/03 06:06:16;;;;;;;;;;;13.20;57.90;;;;;;5102555;28;20107;-70
2022/01/03 06:08:39;;;;;;;;;;;13.20;58.10;;;;;;5102147;28;20272;-71
2022/01/03 06:11:04;;;;;;;;;;;13.20;58.20;;;;;;5102533;28;19946;-69
2022/01/03 06:13:30;;;;;;;;;;;13.30;58.10;;;;;;5084183;28;19916;-70
2022/01/03 06:15:56;;;;;;;;;;;13.30;58.00;;;;;;5084258;28;19908;-70
2022/01/03 06:18:22;;;;;;;;;;;13.30;57.90;;;;;;5102278;28;19900;-71
2022/01/03 06:20:48;;;;;;;;;;;13.40;57.80;;;;;;5102317;28;19984;-70
2022/01/03 06:23:15;;;;;;;;;;;13.30;57.80;;;;;;5102146;28;19969;-70
2022/01/03 06:25:41;;;;;;;;;;;13.20;57.90;;;;;;5084032;28;19908;-70
2022/01/03 06:28:07;;;;;;;;;;;13.30;57.80;;;;;;5101567;28;19939;-70
2022/01/03 06:30:33;;;;;;;;;;;13.30;57.80;;;;;;5101992;28;19938;-71
2022/01/03 06:32:59;;;;;;;;;;;13.20;57.90;;;;;;5101969;28;19939;-70
2022/01/03 06:35:25;;;;;;;;;;;13.30;58.00;;;;;;5102048;28;20277;-71
2022/01/03 06:37:50;;;;;;;;;;;13.30;58.00;;;;;;5083832;28;20196;-70
2022/01/03 06:40:16;;;;;;;;;;;13.30;57.90;;;;;;5102249;28;19915;-71
2022/01/03 06:42:42;;;;;;;;;;;13.30;58.00;;;;;;5101829;28;20188;-71
2022/01/03 06:45:07;;;;;;;;;;;13.30;58.00;;;;;;5101766;28;19900;-71
2022/01/03 06:47:33;;;;;;;;;;;13.30;58.00;;;;;;5101639;28;19904;-70
2022/01/03 06:49:59;;;;;;;;;;;13.30;58.00;;;;;;5101728;28;19908;-71
2022/01/03 06:52:24;;;;;;;;;;;13.40;57.90;;;;;;5101566;28;19953;-70
2022/01/03 06:54:50;;;;;;;;;;;13.40;57.80;;;;;;5083586;28;19980;-70
2022/01/03 06:57:16;;;;;;;;;;;13.40;57.80;;;;;;5083349;28;19908;-70
2022/01/03 06:59:41;;;;;;;;;;;13.30;57.90;;;;;;5101523;28;19929;-71
2022/01/03 07:02:07;;;;;;;;;;;13.30;57.80;;;;;;5083297;28;19979;-70
2022/01/03 07:04:33;;;;;;;;;;;13.30;57.80;;;;;;5101395;28;20193;-70
2022/01/03 07:06:59;;;;;;;;;;;13.30;57.80;;;;;;5101395;28;19942;-70
2022/01/03 07:09:24;;;;;;;;;;;13.30;57.80;;;;;;5101195;28;19923;-70
2022/01/03 07:11:50;;;;;;;;;;;13.40;57.80;;;;;;5101232;28;19907;-70
2022/01/03 07:19:35;;;;;;;;;;;13.30;57.80;;;;;;5101131;28;19994;-70
2022/01/03 07:22:03;;;;;;;;;;;13.20;58.00;;;;;;5100959;28;19919;-69
2022/01/03 07:24:29;;;;;;;;;;;13.20;58.20;;;;;;5101050;28;19904;-70
2022/01/03 07:26:55;;;;;;;;;;;13.30;58.20;;;;;;5082716;28;19907;-70
2022/01/03 07:29:21;;;;;;;;;;;13.30;58.00;;;;;;5100857;28;20200;-70
2022/01/03 07:31:46;;;;;;;;;;;13.40;57.90;;;;;;5100899;28;19908;-70
2022/01/03 07:34:12;;;;;;;;;;;13.40;57.90;;;;;;5100656;28;20096;-70
2022/01/03 07:36:37;;;;;;;;;;;13.40;57.70;;;;;;5082621;28;20180;-70
2022/01/03 07:39:03;;;;;;;;;;;13.40;57.80;;;;;;5082519;28;20383;-71
2022/01/03 07:41:31;;;;;;;;;;;13.30;57.90;;;;;;5099751;28;19914;-70
2022/01/03 07:43:56;;;;;;;;;;;13.30;57.70;;;;;;5100673;28;19908;-70
2022/01/03 07:46:22;;;;;;;;;;;13.30;57.90;;;;;;5100547;28;19907;-70
2022/01/03 07:48:48;;;;;;;;;;;13.30;57.90;;;;;;5100539;28;19907;-70
2022/01/03 07:51:13;;;;;;;;;;;13.30;57.90;;;;;;5082244;28;20103;-70
2022/01/03 07:53:41;;;;;;;;;;;13.30;57.90;;;;;;5100342;28;19977;-71
2022/01/03 07:56:07;;;;;;;;;;;13.30;57.90;;;;;;5100430;28;19908;-70
2022/01/03 07:58:32;;;;;;;;;;;13.30;57.80;;;;;;5082173;28;19963;-71
2022/01/03 08:00:59;;;;;;;;;;;13.30;58.00;;;;;;5100412;28;19974;-71
2022/01/03 08:03:25;;;;;;;;;;;13.20;58.00;;;;;;5100337;28;19980;-70
2022/01/03 08:05:50;;;;;;;;;;;13.20;58.20;;;;;;5100216;28;19908;-70
2022/01/03 08:08:16;;;;;;;;;;;13.30;58.20;;;;;;5100087;28;20196;-69
2022/01/03 08:10:42;;;;;;;;;;;13.30;58.20;;;;;;5100151;28;19980;-70
2022/01/03 08:13:08;;;;;;;;;;;13.30;58.10;;;;;;5100051;28;20110;-70
2022/01/03 08:15:34;;;;;;;;;;;13.30;58.00;;;;;;5100159;28;19907;-70
2022/01/03 08:17:59;;;;;;;;;;;13.30;58.00;;;;;;5100059;28;19912;-70
2022/01/03 08:20:25;;;;;;;;;;;13.30;57.90;;;;;;5100178;28;19908;-70
2022/01/03 08:22:51;;;;;;;;;;;13.40;58.00;;;;;;5081902;28;19948;-70
2022/01/03 08:25:17;;;;;;;;;;;13.30;57.90;;;;;;5100084;28;19900;-70
2022/01/03 08:27:43;;;;;;;;;;;13.40;58.00;;;;;;5100008;28;19950;-70
2022/01/03 08:30:08;;;;;;;;;;;13.40;58.00;;;;;;5100036;28;20410;-70
2022/01/03 08:32:34;;;;;;;;;;;13.40;57.90;;;;;;5099838;28;19915;-70
2022/01/03 08:35:00;;;;;;;;;;;13.40;58.00;;;;;;5099891;28;19907;-70
2022/01/03 08:37:25;;;;;;;;;;;13.40;58.00;;;;;;5099935;28;20512;-70
2022/01/03 08:39:52;;;;;;;;;;;13.30;57.90;;;;;;5099799;28;19908;-70
2022/01/03 08:42:20;;;;;;;;;;;13.40;57.90;;;;;;5099890;28;19968;-70
2022/01/03 08:44:46;;;;;;;;;;;13.40;58.00;;;;;;5099827;28;19908;-70
2022/01/03 08:47:12;;;;;;;;;;;13.30;58.00;;;;;;5099803;28;19939;-70
2022/01/03 08:49:37;;;;;;;;;;;13.40;58.00;;;;;;5099858;28;20102;-70
2022/01/03 08:52:05;;;;;;;;;;;13.30;58.00;;;;;;5101229;28;19970;-69
2022/01/03 08:54:31;;;;;;;;;;;13.30;58.10;;;;;;5085463;28;20223;-70
2022/01/03 08:56:57;;;;;;;;;;;13.30;58.10;;;;;;5085538;28;20099;-70
2022/01/03 08:59:23;;;;;;;;;;;13.30;58.00;;;;;;5085509;28;19900;-70
2022/01/03 09:01:48;;;;;;;;;;;13.30;58.00;;;;;;5103608;28;19908;-70
2022/01/03 09:04:14;;;;;;;;;;;13.30;58.00;;;;;;5103894;28;19908;-70
2022/01/03 09:06:40;;;;;;;;;;;13.40;58.00;;;;;;5103472;28;19908;-71
2022/01/03 09:09:06;;;;;;;;;;;13.30;58.00;;;;;;5103308;28;19916;-71
2022/01/03 09:11:31;;;;;;;;;;;13.30;58.00;;;;;;5103455;28;19914;-71
2022/01/03 09:13:57;;;;;;;;;;;13.30;58.00;;;;;;5085173;28;19912;-70
2022/01/03 09:16:23;;;;;;;;;;;13.30;58.00;;;;;;5103331;28;20073;-70
2022/01/03 09:18:48;;;;;;;;;;;13.30;58.00;;;;;;5103294;28;19908;-70
2022/01/03 09:21:14;;;;;;;;;;;13.40;58.00;;;;;;5085218;28;19939;-71
2022/01/03 09:23:45;;;;;;;;;;;13.30;58.00;;;;;;5103248;28;19991;-71
2022/01/03 09:28:58;;;;;;;;;;;13.30;58.10;;;;;;5103257;28;20270;-70
2022/01/03 09:31:24;;;;;;;;;;;13.40;58.10;;;;;;5103088;28;19904;-70
2022/01/03 09:33:50;;;;;;;;;;;13.30;58.00;;;;;;5102964;28;19912;-71
2022/01/03 09:36:16;;;;;;;;;;;13.40;58.00;;;;;;5103064;28;19908;-70
2022/01/03 09:38:42;;;;;;;;;;;13.40;58.00;;;;;;5102866;28;19908;-71
2022/01/03 09:41:08;;;;;;;;;;;13.40;58.00;;;;;;5102858;28;19936;-71
2022/01/03 09:43:41;;;;;;;;;;;13.40;58.00;;;;;;5102946;28;19906;-71
2022/01/03 09:46:08;;;;;;;;;;;13.40;58.00;;;;;;5084720;28;20331;-71
2022/01/03 09:48:36;;;;;;;;;;;13.30;58.00;;;;;;5102907;28;19908;-71
2022/01/03 09:51:02;;;;;;;;;;;13.40;58.10;;;;;;5102669;28;20226;-71
2022/01/03 09:53:27;;;;;;;;;;;13.30;58.60;;;;;;5102735;28;19974;-71
2022/01/03 09:55:53;;;;;;;;;;;13.40;58.00;;;;;;5102697;28;19927;-71
2022/01/03 09:58:19;;;;;;;;;;;13.40;58.00;;;;;;5102719;28;20327;-70
2022/01/03 10:00:45;;;;;;;;;;;13.40;57.90;;;;;;5102637;28;19950;-70
2022/01/03 10:03:11;;;;;;;;;;;13.40;57.90;;;;;;5083288;28;19904;-70
2022/01/03 10:05:37;;;;;;;;;;;13.40;57.90;;;;;;5102548;28;19906;-70
2022/01/03 10:08:02;;;;;;;;;;;13.40;58.00;;;;;;5102311;28;19908;-70
2022/01/03 10:10:28;;;;;;;;;;;13.40;57.90;;;;;;5102459;28;19900;-71
2022/01/03 10:12:54;;;;;;;;;;;13.40;57.90;;;;;;5102264;28;20208;-70
2022/01/03 10:15:20;;;;;;;;;;;13.40;57.80;;;;;;5084077;28;19914;-70
2022/01/03 10:17:47;;;;;;;;;;;13.50;57.90;;;;;;5102292;28;19908;-70
2022/01/03 10:20:13;;;;;;;;;;;13.40;57.80;;;;;;5102200;28;20013;-70
2022/01/03 10:22:40;;;;;;;;;;;13.40;57.80;;;;;;5102190;28;19908;-70
2022/01/03 10:25:16;;;;;;;;;;;13.50;57.90;;;;;;5102135;28;19908;-70
2022/01/03 10:28:05;;;;;;;;;;;13.40;57.90;;;;;;5102082;28;19900;-70
2022/01/03 10:30:38;;;;;;;;;;;13.40;57.90;;;;;;5102010;28;20346;-69
2022/01/03 10:33:05;;;;;;;;;;;13.40;57.90;;;;;;5101917;28;19919;-70
2022/01/03 10:35:55;;;;;;;;;;;13.40;57.90;;;;;;5101877;28;19908;-70
2022/01/03 10:38:36;;;;;;;;;;;13.40;57.80;;;;;;5073626;28;19908;-71
2022/01/03 10:41:08;;;;;;;;;;;13.40;57.80;;;;;;5101765;28;19946;-71
2022/01/03 10:43:34;;;;;;;;;;;13.50;57.90;;;;;;5101711;28;19908;-70
2022/01/03 10:46:00;;;;;;;;;;;13.40;57.90;;;;;;5101676;28;20100;-70
2022/01/03 10:48:30;;;;;;;;;;;13.40;57.80;;;;;;5101704;28;19908;-71
2022/01/03 10:50:56;;;;;;;;;;;13.40;57.80;;;;;;5101613;28;19908;-70
2022/01/03 10:53:32;;;;;;;;;;;13.40;57.90;;;;;;5101470;28;19943;-70
2022/01/03 10:55:57;;;;;;;;;;;13.50;58.00;;;;;;5101526;28;19928;-70
2022/01/03 10:58:32;;;;;;;;;;;13.50;57.90;;;;;;5083174;28;20345;-70
2022/01/03 11:00:58;;;;;;;;;;;13.50;57.90;;;;;;5101486;28;19904;-70
2022/01/03 11:03:34;;;;;;;;;;;13.50;57.80;;;;;;5101391;28;20459;-69
2022/01/03 11:06:12;;;;;;;;;;;13.50;57.90;;;;;;5101376;28;19946;-70
2022/01/03 11:11:36;;;;;;;;;;;13.50;58.00;;;;;;5101360;28;20108;-70
2022/01/03 11:14:02;;;;;;;;;;;13.50;57.90;;;;;;5101045;28;19920;-70
2022/01/03 11:16:42;;;;;;;;;;;13.40;57.90;;;;;;5101043;28;19907;-70
2022/01/03 11:19:08;;;;;;;;;;;13.50;58.00;;;;;;5082930;28;19900;-70
2022/01/03 11:21:36;;;;;;;;;;;13.50;58.00;;;;;;5082876;28;19908;-70
2022/01/03 11:24:06;;;;;;;;;;;13.50;58.00;;;;;;5101035;28;19899;-70
2022/01/03 11:26:33;;;;;;;;;;;13.50;57.90;;;;;;5082777;28;19915;-70
2022/01/03 11:29:00;;;;;;;;;;;13.40;57.80;;;;;;5100964;28;20301;-70
2022/01/03 11:31:27;;;;;;;;;;;13.40;57.80;;;;;;5100857;28;19912;-70
2022/01/03 11:33:53;;;;;;;;;;;13.50;57.90;;;;;;5100764;28;19975;-71
2022/01/03 11:36:20;;;;;;;;;;;13.50;57.90;;;;;;5100793;28;19908;-70
2022/01/03 11:38:46;;;;;;;;;;;13.50;57.90;;;;;;5101157;28;19935;-70
2022/01/03 11:41:12;;;;;;;;;;;13.50;57.90;;;;;;5100716;28;20192;-71
2022/01/03 11:43:39;;;;;;;;;;;13.50;57.90;;;;;;5100721;28;19907;-70
2022/01/03 11:46:05;;;;;;;;;;;13.50;58.00;;;;;;5100717;28;19915;-70
2022/01/03 11:48:31;;;;;;;;;;;13.50;57.90;;;;;;5082296;28;19938;-71
2022/01/03 11:50:58;;;;;;;;;;;13.50;57.90;;;;;;5100572;28;20219;-70
2022/01/03 11:53:25;;;;;;;;;;;13.50;57.90;;;;;;5100447;28;19915;-70
2022/01/03 11:55:55;;;;;;;;;;;13.50;57.90;;;;;;5100537;28;19988;-70
2022/01/03 11:58:42;;;;;;;;;;;13.50;58.60;;;;;;5100504;28;19950;-69
2022/01/03 12:03:54;;;;;;;;;;;13.50;57.90;;;;;;5100413;28;20207;-70
2022/01/03 12:06:25;;;;;;;;;;;13.50;57.90;;;;;;5082188;28;19978;-70
2022/01/03 12:08:55;;;;;;;;;;;13.50;57.80;;;;;;5100137;28;19916;-69
2022/01/03 12:11:22;;;;;;;;;;;13.50;57.80;;;;;;5082167;28;19984;-70
2022/01/03 12:13:49;;;;;;;;;;;13.50;57.80;;;;;;5082108;28;19908;-70
2022/01/03 12:16:15;;;;;;;;;;;13.50;57.80;;;;;;5100211;28;20460;-70
2022/01/03 12:18:57;;;;;;;;;;;13.50;57.90;;;;;;5100237;28;19936;-72
2022/01/03 12:21:45;;;;;;;;;;;13.50;57.90;;;;;;5100108;28;19900;-70
2022/01/03 12:24:26;;;;;;;;;;;13.50;57.80;;;;;;5052673;28;19904;-70
2022/01/03 12:27:13;;;;;;;;;;;13.50;58.00;;;;;;5103148;28;19912;-70
2022/01/03 12:29:57;;;;;;;;;;;13.50;57.90;;;;;;5106853;28;20483;-70
2022/01/03 12:32:27;;;;;;;;;;;13.50;57.90;;;;;;5088657;28;19900;-70
2022/01/03 12:35:12;;;;;;;;;;;13.50;57.80;;;;;;5106543;28;20297;-69
2022/01/03 12:37:39;;;;;;;;;;;13.60;57.90;;;;;;5106795;28;19900;-70
2022/01/03 12:40:04;;;;;;;;;;;13.60;57.90;;;;;;5106776;28;19908;-70
2022/01/03 12:42:54;;;;;;;;;;;13.60;57.90;;;;;;5106711;28;20013;-71
2022/01/03 12:45:25;;;;;;;;;;;13.60;57.90;;;;;;5093317;28;19908;-71
2022/01/03 12:47:52;;;;;;;;;;;13.60;57.90;;;;;;5106590;28;19937;-70
2022/01/03 12:50:29;;;;;;;;;;;13.60;57.90;;;;;;5106690;28;19907;-70
2022/01/03 12:52:57;;;;;;;;;;;13.60;57.80;;;;;;5106578;28;20317;-70
2022/01/03 12:55:37;;;;;;;;;;;13.60;57.80;;;;;;5106564;28;19967;-70
2022/01/03 12:58:18;;;;;;;;;;;13.60;57.90;;;;;;5088126;28;19900;-69
2022/01/03 13:00:44;;;;;;;;;;;13.60;57.90;;;;;;5106533;28;19975;-70
2022/01/03 13:03:18;;;;;;;;;;;13.60;58.00;;;;;;5106457;28;19914;-71
2022/01/03 13:06:04;;;;;;;;;;;13.60;58.00;;;;;;5106530;28;19908;-70
2022/01/03 13:08:29;;;;;;;;;;;13.60;57.90;;;;;;5106160;28;20138;-70
2022/01/03 13:11:14;;;;;;;;;;;13.60;57.90;;;;;;5106508;28;19943;-70
2022/01/03 13:13:41;;;;;;;;;;;13.60;57.90;;;;;;5088434;28;19969;-70
2022/01/03 13:16:16;;;;;;;;;;;13.60;57.90;;;;;;5106367;28;19967;-70
2022/01/03 13:18:46;;;;;;;;;;;13.60;57.90;;;;;;5106393;28;19900;-70
2022/01/03 13:21:12;;;;;;;;;;;13.60;57.90;;;;;;5106327;28;20005;-70
2022/01/03 13:23:38;;;;;;;;;;;13.60;57.90;;;;;;5106407;28;19907;-69
2022/01/03 13:26:04;;;;;;;;;;;13.60;58.00;;;;;;5088014;28;19947;-70
2022/01/03 13:28:30;;;;;;;;;;;13.60;57.90;;;;;;5106177;28;20123;-70
2022/01/03 13:31:02;;;;;;;;;;;13.60;57.90;;;;;;5106220;28;20215;-70
2022/01/03 13:33:28;;;;;;;;;;;13.60;57.80;;;;;;5106186;28;20114;-70
2022/01/03 13:36:03;;;;;;;;;;;13.60;57.70;;;;;;5106180;28;19914;-69
2022/01/03 13:38:29;;;;;;;;;;;13.60;57.70;;;;;;5104475;28;19908;-70
2022/01/03 13:41:08;;;;;;;;;;;13.60;57.70;;;;;;5084798;28;19915;-69
2022/01/03 13:43:39;;;;;;;;;;;13.70;57.80;;;;;;5102937;28;19927;-70
2022/01/03 13:51:16;;;;;;;;;;;13.70;57.80;;;;;;5102852;28;19914;-69
2022/01/03 13:53:52;;;;;;;;;;;13.70;57.80;;;;;;5102647;28;19904;-70
2022/01/03 13:56:18;;;;;;;;;;;13.70;57.80;;;;;;5102767;28;19899;-70
2022/01/03 13:58:45;;;;;;;;;;;13.70;57.80;;;;;;5084378;28;19946;-70
2022/01/03 14:01:11;;;;;;;;;;;13.70;57.80;;;;;;5102479;28;20223;-70
2022/01/03 14:03:39;;;;;;;;;;;13.70;57.80;;;;;;5102582;28;19912;-70
2022/01/03 14:06:18;;;;;;;;;;;13.70;57.90;;;;;;5102493;28;19908;-70
2022/01/03 14:08:45;;;;;;;;;;;13.70;57.90;;;;;;5102226;28;19923;-70
2022/01/03 14:11:12;;;;;;;;;;;13.60;57.90;;;;;;5084172;28;19900;-70
2022/01/03 14:13:37;;;;;;;;;;;13.70;58.00;;;;;;5102262;28;19914;-71
2022/01/03 14:16:07;;;;;;;;;;;13.70;58.10;;;;;;5102298;28;19931;-70
2022/01/03 14:18:46;;;;;;;;;;;13.70;58.00;;;;;;5102193;28;20180;-70
2022/01/03 14:21:13;;;;;;;;;;;13.70;58.00;;;;;;5102143;28;19908;-70
2022/01/03 14:23:42;;;;;;;;;;;13.70;58.00;;;;;;5102068;28;19912;-71
2022/01/03 14:26:18;;;;;;;;;;;13.70;58.10;;;;;;5102156;28;20251;-70
2022/01/03 14:28:44;;;;;;;;;;;13.70;58.10;;;;;;5102328;28;19935;-70
2022/01/03 14:31:11;;;;;;;;;;;13.60;58.10;;;;;;5101907;28;19930;-69
2022/01/03 14:33:40;;;;;;;;;;;13.60;58.10;;;;;;5101845;28;19912;-71
2022/01/03 14:36:16;;;;;;;;;;;13.60;58.20;;;;;;5083659;28;19945;-70
2022/01/03 14:38:45;;;;;;;;;;;13.60;58.20;;;;;;5101760;28;20200;-71
2022/01/03 14:41:21;;;;;;;;;;;13.60;58.30;;;;;;5101778;28;19908;-71